San José, Costa Rica

5:02 PM CST on February 07, 2016 (GMT -0600)
Escalante | | Change Station
CLOSE
Current Station
Personal Weather Station
Location: San Jose, San Jose
Elevation: 3911 ft
Nearby Weather Stations

Elev 3911 ft 9.93 °N, 84.07 °W | Updated 5 seconds ago

Partly Cloudy
Partly Cloudy
68.2 °F
Feels Like 68.2 °F
N
15.0
Wind Variable Wind from ENE
Gusts 19.0 mph

Today
High -- | Low -- °F
--% Chance of Precip.
Yesterday
High -- | Low -- °F
Precip. -- in
Pressure 29.99 in
Visibility 6.2 miles
Clouds Few 3500 ft
Dew Point 59 °F
Humidity 72%
Rainfall 0.00 in
Snow Depth Not available.
5:57 AM 5:42 PM
Waning Crescent, 1% visible
METAR MRPV 072300Z 07020G30KT 9999 FEW035 22/13 A2999 NOSIG
Pressure 29.99 in
Visibility 6.2 miles
Clouds Few 3500 ft
Dew Point 59 °F
Humidity 72%
Rainfall 0.00 in
Snow Depth Not available.
5:57 AM 5:42 PM
Waning Crescent, 1% visible
METAR MRPV 072300Z 07020G30KT 9999 FEW035 22/13 A2999 NOSIG

10-Day Weather Forecast

No radar image for this location.
×

Almanac

Astronomy

Feb. 07, 2016 Rise Set
Actual Time
Civil Twilight
Nautical Twilight
Astronomical Twilight
Moon
Length of Visible Light
Length of Day
Tomorrow will be .
, % of the Moon is Illuminated

Today's Extremes

Country Highs Country Lows

Community

WunderPhotos

Upload Photos

1,891,325 photos uploaded!

WunderBlog® & News

Nearby

Air Quality

  Air Quality AQ Index Pollutant
Not available.

Snow Depth

Station Depth Elevation

Earthquake Activity

City Distance Mag. Time & Date
Minimum magnitude displayed is 2.5.

Coastal Water Temperatures

Place Temperature

Stations

Nearby Weather Stations

Station Location Temp. Windchill Dew Point Humidity Wind Precip. Elev Updated Type